Corbin, Kansas
Current Conditions -  °F | °C
As of 7:35 AM on Thursday 30 Oct 2014 (Local Time) from KBKN Reporting Station
Few Clouds Few Clouds  
Wind Chill: 41°   Ceiling: Unl
Heat Index: 45°   Visibility: 10mi
Dew Point: 37°   Wind: 7mph
Humidity: 76%   Direction: 230°SW
Pressure: 30.09"   Gusts: NA
Location:  37.0967°N, 97.6589°W
Report Text: KBKN 301235Z AUTO 23006KT 10SM FEW041 FEW050 07/03 A3009 RMK AO2
Loading
Personal Weather Stations






























Interactive Weather Map
Tropical Storm Tracking
New forecast layout! Learn more

10-Day Weather Forecast

Advertisements
Track Severe Weather on mobile